Strona główna
METAR-TAF:

METAR-TAF

Lotnisko :

Kokomo Municipal Airport

Kokomo, Indiana, Stany Zjednoczone

Szerokość geograficzna: 40-32N, Długość geograficzna: 086-04W, wysokość: 253 m

Aktualna obserwacja pogody

Raport powstał 53 minut temu, godzina 16:56 UTC
Wiatr 8 kt od południowo-południowy zachód
Temperatura 31°C
Wilgotność 75%
Ciśnienie 1014 hPa
Widzialność: 16.1 km
bezchmurnie

METAR: KOKK 201656Z AUTO 21008KT 10SM CLR 31/26 A2994 RMK AO2 SLP131 T03110261 PNO $

czas: 13:49 (17:49 UTC)


TAF: brakujący

Obserwacja i prognoza pogody dla ponad 4000 lotnisk (raport METAR i TAF).

Dostępne stacje oznaczono żółtymi i czerwonymi punktami na mapie.

Najedź kursorem aby zobaczyć nazwę stacji.

Kliknij aby zobaczyć obserwacje i prognozy pogody.

Aby zmienić mapę: kliknij na zielony przycisk z czarnym krzyżykiem, aby powiększyć; na zielony przycisk z myślnikiem, aby pomniejszyć; na zielone strzałki, aby przejść do map sąsiednich.


METAR-TAF: